TimeEDT,TemperatureF,Dew PointF,Humidity,Sea Level PressureIn,VisibilityMPH,Wind Direction,Wind SpeedMPH,Gust SpeedMPH,PrecipitationIn,Events,Conditions,WindDirDegrees,DateUTC
12:56 AM,50.0,48.0,93,29.95,10.0,Calm,Calm,-,N/A,,Clear,0,2012-10-17 04:56:00
1:56 AM,50.0,48.0,93,29.96,10.0,Calm,Calm,-,N/A,,Clear,0,2012-10-17 05:56:00
2:56 AM,48.9,46.9,93,29.95,10.0,Calm,Calm,-,N/A,,Clear,0,2012-10-17 06:56:00
3:56 AM,48.9,46.0,90,29.95,10.0,Calm,Calm,-,N/A,,Clear,0,2012-10-17 07:56:00
4:56 AM,46.9,45.0,93,29.97,10.0,Calm,Calm,-,N/A,,Clear,0,2012-10-17 08:56:00
6:56 AM,46.9,45.0,93,30.00,10.0,Calm,Calm,-,N/A,,Scattered Clouds,0,2012-10-17 10:56:00
7:56 AM,50.0,46.0,86,30.01,10.0,Calm,Calm,-,0.01,,Mostly Cloudy,0,2012-10-17 11:56:00
8:56 AM,51.1,48.0,89,30.02,10.0,Calm,Calm,-,N/A,,Overcast,0,2012-10-17 12:56:00
9:56 AM,57.9,52.0,81,30.04,10.0,Calm,Calm,-,N/A,,Mostly Cloudy,0,2012-10-17 13:56:00
10:56 AM,63.0,52.0,67,30.04,9.0,Calm,Calm,-,N/A,,Mostly Cloudy,0,2012-10-17 14:56:00
12:56 PM,66.0,46.0,48,30.02,10.0,East,4.6,-,N/A,,Mostly Cloudy,90,2012-10-17 16:56:00
1:56 PM,66.9,46.9,49,30.00,10.0,Calm,Calm,-,N/A,,Mostly Cloudy,0,2012-10-17 17:56:00
2:56 PM,66.9,46.9,49,29.99,10.0,ESE,3.5,-,N/A,,Clear,120,2012-10-17 18:56:00
3:56 PM,68.0,48.0,49,29.98,10.0,SE,5.8,-,N/A,,Clear,140,2012-10-17 19:56:00
4:56 PM,66.9,48.9,52,29.97,10.0,SE,4.6,-,N/A,,Clear,140,2012-10-17 20:56:00
5:56 PM,64.9,51.1,61,29.97,10.0,SE,3.5,-,N/A,,Clear,140,2012-10-17 21:56:00
6:56 PM,61.0,51.1,70,29.98,10.0,Calm,Calm,-,N/A,,Clear,0,2012-10-17 22:56:00
7:56 PM,55.0,52.0,89,29.99,10.0,Calm,Calm,-,N/A,,Clear,0,2012-10-17 23:56:00
8:56 PM,53.1,51.1,93,30.00,10.0,Calm,Calm,-,N/A,,Clear,0,2012-10-18 00:56:00
9:56 PM,53.1,51.1,93,30.00,10.0,East,4.6,-,N/A,,Clear,80,2012-10-18 01:56:00
10:56 PM,54.0,51.1,90,30.00,10.0,NE,3.5,-,N/A,,Clear,50,2012-10-18 02:56:00
11:56 PM,57.0,53.1,87,29.98,10.0,East,5.8,-,N/A,,Clear,80,2012-10-18 03:56:00